Time;durP1;ratioP1;P1;durP2;ratioP2;P2;SDS_P1;SDS_P2;PMS_P1;PMS_P2;Temp;Humidity;BMP_temperature;BMP_pressure;BME280_temperature;BME280_humidity;BME280_pressure;Samples;Min_cycle;Max_cycle;Signal;HPM_P1;HPM_P2
2022/09/23 00:01:20;;;;;;;;;;;9.20;99.90;;;;;;5054899;28;19942;-69
2022/09/23 00:03:47;;;;;;;;;;;9.10;99.90;;;;;;5054626;28;19924;-69
2022/09/23 00:06:31;;;;;;;;;;;9.10;99.90;;;;;;5054974;28;19921;-69
2022/09/23 00:08:57;;;;;;;;;;;9.10;99.90;;;;;;5079815;28;19928;-69
2022/09/23 00:11:23;;;;;;;;;;;9.00;99.90;;;;;;5049378;28;19928;-69
2022/09/23 00:13:50;;;;;;;;;;;9.00;99.90;;;;;;5051585;28;19920;-69
2022/09/23 00:16:17;;;;;;;;;;;9.00;99.90;;;;;;5054637;28;19929;-69
2022/09/23 00:18:43;;;;;;;;;;;9.00;99.90;;;;;;5054462;28;20065;-69
2022/09/23 00:21:09;;;;;;;;;;;9.00;99.90;;;;;;5087947;28;20023;-69
2022/09/23 00:23:36;;;;;;;;;;;9.00;99.90;;;;;;5078884;28;19925;-69
2022/09/23 00:26:02;;;;;;;;;;;8.90;99.90;;;;;;5058173;28;19920;-69
2022/09/23 00:28:28;;;;;;;;;;;9.00;99.90;;;;;;5085273;28;19929;-69
2022/09/23 00:30:53;;;;;;;;;;;9.00;99.90;;;;;;5084709;28;19928;-70
2022/09/23 00:33:19;;;;;;;;;;;9.00;99.90;;;;;;5086137;28;20376;-69
2022/09/23 00:35:44;;;;;;;;;;;9.00;99.90;;;;;;5065619;28;20258;-69
2022/09/23 00:38:10;;;;;;;;;;;9.00;99.90;;;;;;5053489;28;19927;-69
2022/09/23 00:40:41;;;;;;;;;;;9.00;99.90;;;;;;5050688;28;19932;-69
2022/09/23 00:43:08;;;;;;;;;;;9.00;99.90;;;;;;5050012;28;19924;-69
2022/09/23 00:45:34;;;;;;;;;;;9.00;99.90;;;;;;5050372;28;19927;-69
2022/09/23 00:48:00;;;;;;;;;;;9.00;99.90;;;;;;5043016;28;19932;-69
2022/09/23 00:50:33;;;;;;;;;;;9.00;99.90;;;;;;5032688;28;19935;-69
2022/09/23 00:53:00;;;;;;;;;;;8.90;99.90;;;;;;5051612;28;19920;-69
2022/09/23 00:55:28;;;;;;;;;;;8.90;99.90;;;;;;5046535;28;20045;-69
2022/09/23 00:57:55;;;;;;;;;;;8.90;99.90;;;;;;5049491;28;19924;-69
2022/09/23 01:00:21;;;;;;;;;;;8.90;99.90;;;;;;5052260;28;19920;-69
2022/09/23 01:02:46;;;;;;;;;;;8.90;99.90;;;;;;5048806;28;20324;-69
2022/09/23 01:05:12;;;;;;;;;;;8.90;99.90;;;;;;5053508;28;19973;-69
2022/09/23 01:07:37;;;;;;;;;;;8.90;99.90;;;;;;5052447;28;19924;-69
2022/09/23 01:10:04;;;;;;;;;;;8.90;99.90;;;;;;5087549;28;19924;-69
2022/09/23 01:12:48;;;;;;;;;;;8.90;99.90;;;;;;5053890;28;19950;-69
2022/09/23 01:15:17;;;;;;;;;;;8.90;99.90;;;;;;5037168;28;19930;-69
2022/09/23 01:18:05;;;;;;;;;;;8.90;99.90;;;;;;5051400;28;19973;-69
2022/09/23 01:20:49;;;;;;;;;;;8.90;99.90;;;;;;5039715;28;20027;-69
2022/09/23 01:23:15;;;;;;;;;;;8.90;99.90;;;;;;5033995;28;19932;-69
2022/09/23 01:25:40;;;;;;;;;;;8.80;99.90;;;;;;5051643;28;19924;-69
2022/09/23 01:28:18;;;;;;;;;;;8.80;99.90;;;;;;5069552;28;20365;-69
2022/09/23 01:30:52;;;;;;;;;;;8.80;99.90;;;;;;5083548;28;19920;-69
2022/09/23 01:33:20;;;;;;;;;;;8.80;99.90;;;;;;5042651;28;19927;-69
2022/09/23 01:36:01;;;;;;;;;;;8.80;99.90;;;;;;5081703;28;20807;-69
2022/09/23 01:38:30;;;;;;;;;;;8.80;99.90;;;;;;5050303;28;19931;-69
2022/09/23 01:41:03;;;;;;;;;;;8.80;99.90;;;;;;5069972;28;19970;-69
2022/09/23 01:43:37;;;;;;;;;;;8.80;99.90;;;;;;5084588;28;20007;-69
2022/09/23 01:46:06;;;;;;;;;;;8.80;99.90;;;;;;5052667;28;19973;-69
2022/09/23 01:48:34;;;;;;;;;;;8.80;99.90;;;;;;5054332;28;19924;-69
2022/09/23 01:51:20;;;;;;;;;;;8.80;99.90;;;;;;5053987;28;19971;-69
2022/09/23 01:54:04;;;;;;;;;;;8.80;99.90;;;;;;5040134;28;19959;-69
2022/09/23 01:56:33;;;;;;;;;;;8.80;99.90;;;;;;5052416;28;20408;-69
2022/09/23 01:59:05;;;;;;;;;;;8.80;99.90;;;;;;5051910;28;19999;-69
2022/09/23 02:01:38;;;;;;;;;;;8.70;99.90;;;;;;5054879;28;19920;-69
2022/09/23 02:04:18;;;;;;;;;;;8.70;99.90;;;;;;5055183;28;19921;-69
2022/09/23 02:06:47;;;;;;;;;;;8.80;99.90;;;;;;5055925;28;19924;-69
2022/09/23 02:09:15;;;;;;;;;;;8.80;99.90;;;;;;5052343;28;19939;-69
2022/09/23 02:11:44;;;;;;;;;;;8.70;99.90;;;;;;5053392;28;19939;-69
2022/09/23 02:14:30;;;;;;;;;;;8.70;99.90;;;;;;5053420;28;19921;-69
2022/09/23 02:16:59;;;;;;;;;;;8.70;99.90;;;;;;5068544;28;19924;-69
2022/09/23 02:19:30;;;;;;;;;;;8.80;99.90;;;;;;5054184;28;19956;-69
2022/09/23 02:22:07;;;;;;;;;;;8.70;99.90;;;;;;5071791;28;20035;-69
2022/09/23 02:24:35;;;;;;;;;;;8.80;99.90;;;;;;5049739;28;19929;-69
2022/09/23 02:27:00;;;;;;;;;;;8.80;99.90;;;;;;5085617;28;19920;-69
2022/09/23 02:29:41;;;;;;;;;;;8.80;99.90;;;;;;5051642;28;20490;-69
2022/09/23 02:32:26;;;;;;;;;;;8.70;99.90;;;;;;5071330;28;20365;-69
2022/09/23 02:34:51;;;;;;;;;;;8.70;99.90;;;;;;5050529;28;19928;-69
2022/09/23 02:37:34;;;;;;;;;;;8.70;99.90;;;;;;5072308;28;19927;-69
2022/09/23 02:40:25;;;;;;;;;;;8.70;99.90;;;;;;5036152;28;20289;-69
2022/09/23 02:43:02;;;;;;;;;;;8.70;99.90;;;;;;5076836;28;19929;-69
2022/09/23 02:45:28;;;;;;;;;;;8.60;99.90;;;;;;5084668;28;19920;-69
2022/09/23 02:47:57;;;;;;;;;;;8.60;99.90;;;;;;5050763;28;20480;-69
2022/09/23 02:50:23;;;;;;;;;;;8.60;99.90;;;;;;5054026;28;19924;-69
2022/09/23 02:52:48;;;;;;;;;;;8.60;99.90;;;;;;5073470;28;19978;-69
2022/09/23 02:55:15;;;;;;;;;;;8.50;99.90;;;;;;5051232;28;19931;-69
2022/09/23 02:57:41;;;;;;;;;;;8.50;99.90;;;;;;5050262;28;19931;-69
2022/09/23 03:00:07;;;;;;;;;;;8.50;99.90;;;;;;5053009;28;20278;-69
2022/09/23 03:02:38;;;;;;;;;;;8.40;99.90;;;;;;5053650;28;19943;-69
2022/09/23 03:05:12;;;;;;;;;;;8.40;99.90;;;;;;5050858;28;19921;-69
2022/09/23 03:07:41;;;;;;;;;;;8.40;99.90;;;;;;5053724;28;20356;-69
2022/09/23 03:10:08;;;;;;;;;;;8.30;99.90;;;;;;5037375;28;20343;-69
2022/09/23 03:12:42;;;;;;;;;;;8.30;99.90;;;;;;5072622;28;19925;-69
2022/09/23 03:15:14;;;;;;;;;;;8.30;99.90;;;;;;5070664;28;19931;-69
2022/09/23 03:17:40;;;;;;;;;;;8.20;99.90;;;;;;5086787;28;20286;-69
2022/09/23 03:20:05;;;;;;;;;;;8.20;99.90;;;;;;5085155;28;19925;-69
2022/09/23 03:22:33;;;;;;;;;;;8.20;99.90;;;;;;5055378;28;20373;-69
2022/09/23 03:25:02;;;;;;;;;;;8.10;99.90;;;;;;5055419;28;19955;-69
2022/09/23 03:27:28;;;;;;;;;;;8.10;99.90;;;;;;5055202;28;19928;-69
2022/09/23 03:29:55;;;;;;;;;;;8.10;99.90;;;;;;5088973;28;19971;-69
2022/09/23 03:32:22;;;;;;;;;;;8.00;99.90;;;;;;5055218;28;19927;-69
2022/09/23 03:34:49;;;;;;;;;;;8.00;99.90;;;;;;5052654;28;19947;-69
2022/09/23 03:37:16;;;;;;;;;;;8.00;99.90;;;;;;5035715;28;19920;-69
2022/09/23 03:40:01;;;;;;;;;;;7.90;99.90;;;;;;5052581;28;19947;-69
2022/09/23 03:42:28;;;;;;;;;;;7.90;99.90;;;;;;5070789;28;20320;-69
2022/09/23 03:44:57;;;;;;;;;;;7.90;99.90;;;;;;5052785;28;19926;-69
2022/09/23 03:47:24;;;;;;;;;;;7.90;99.90;;;;;;5053493;28;19929;-69
2022/09/23 03:49:50;;;;;;;;;;;7.80;99.90;;;;;;5050833;28;20337;-69
2022/09/23 03:52:17;;;;;;;;;;;7.80;99.90;;;;;;5035570;28;19928;-69
2022/09/23 03:54:43;;;;;;;;;;;7.80;99.90;;;;;;5049432;28;19925;-69
2022/09/23 03:57:09;;;;;;;;;;;7.80;99.90;;;;;;5049626;28;19920;-69
2022/09/23 03:59:35;;;;;;;;;;;7.70;99.90;;;;;;5050170;28;19924;-69
2022/09/23 04:02:01;;;;;;;;;;;7.70;99.90;;;;;;5036350;28;20353;-69
2022/09/23 04:04:27;;;;;;;;;;;7.70;99.90;;;;;;5053063;28;19928;-69
2022/09/23 04:06:53;;;;;;;;;;;7.70;99.90;;;;;;5052495;28;19920;-69
2022/09/23 04:09:19;;;;;;;;;;;7.70;99.90;;;;;;5051271;28;19928;-69
2022/09/23 04:11:44;;;;;;;;;;;7.70;99.90;;;;;;5054758;28;19970;-69
2022/09/23 04:14:11;;;;;;;;;;;7.60;99.90;;;;;;5085584;28;19920;-69
2022/09/23 04:16:36;;;;;;;;;;;7.60;99.90;;;;;;5053370;28;19925;-69
2022/09/23 04:19:02;;;;;;;;;;;7.60;99.90;;;;;;5049703;28;19924;-69
2022/09/23 04:21:29;;;;;;;;;;;7.60;99.90;;;;;;5050026;28;20005;-69
2022/09/23 04:23:54;;;;;;;;;;;7.60;99.90;;;;;;5045474;28;19921;-69
2022/09/23 04:26:20;;;;;;;;;;;7.60;99.90;;;;;;5051681;28;19925;-69
2022/09/23 04:28:45;;;;;;;;;;;7.60;99.90;;;;;;5071011;28;19936;-69
2022/09/23 04:31:11;;;;;;;;;;;7.50;99.90;;;;;;5086790;28;19931;-69
2022/09/23 04:33:36;;;;;;;;;;;7.60;99.90;;;;;;5052864;28;20096;-69
2022/09/23 04:36:02;;;;;;;;;;;7.50;99.90;;;;;;5053177;28;19920;-69
2022/09/23 04:38:27;;;;;;;;;;;7.50;99.90;;;;;;5087389;28;20285;-69
2022/09/23 04:40:53;;;;;;;;;;;7.50;99.90;;;;;;5040764;28;20408;-69
2022/09/23 04:43:22;;;;;;;;;;;7.50;99.90;;;;;;5034701;28;19947;-69
2022/09/23 04:46:00;;;;;;;;;;;7.50;99.90;;;;;;5051541;28;19924;-69
2022/09/23 04:48:26;;;;;;;;;;;7.50;99.90;;;;;;5054076;28;19929;-69
2022/09/23 04:50:52;;;;;;;;;;;7.50;99.90;;;;;;5042929;28;19925;-69
2022/09/23 04:53:17;;;;;;;;;;;7.50;99.90;;;;;;5084725;28;19924;-69
2022/09/23 04:55:43;;;;;;;;;;;7.50;99.90;;;;;;5065162;28;19955;-69
2022/09/23 04:58:09;;;;;;;;;;;7.50;99.90;;;;;;5047009;28;19925;-69
2022/09/23 05:00:35;;;;;;;;;;;7.50;99.90;;;;;;5067125;28;19939;-69
2022/09/23 05:03:00;;;;;;;;;;;7.50;99.90;;;;;;5053691;28;19946;-69
2022/09/23 05:05:27;;;;;;;;;;;7.50;99.90;;;;;;5047253;28;19928;-69
2022/09/23 05:07:55;;;;;;;;;;;7.60;99.90;;;;;;5059564;28;19928;-69
2022/09/23 05:10:21;;;;;;;;;;;7.60;99.90;;;;;;5070512;28;19951;-69
2022/09/23 05:12:46;;;;;;;;;;;7.60;99.90;;;;;;5049117;28;20381;-69
2022/09/23 05:15:14;;;;;;;;;;;7.60;99.90;;;;;;5040390;28;19974;-69
2022/09/23 05:17:39;;;;;;;;;;;7.60;99.90;;;;;;5043334;28;19925;-69
2022/09/23 05:20:05;;;;;;;;;;;7.60;99.90;;;;;;5045917;28;20305;-69
2022/09/23 05:22:30;;;;;;;;;;;7.70;99.90;;;;;;5047912;28;19920;-69
2022/09/23 05:24:57;;;;;;;;;;;7.70;99.90;;;;;;5045501;28;19925;-69
2022/09/23 05:27:22;;;;;;;;;;;7.60;99.90;;;;;;5046816;28;19928;-69
2022/09/23 05:29:48;;;;;;;;;;;7.60;99.90;;;;;;5050151;28;19921;-69
2022/09/23 05:32:14;;;;;;;;;;;7.60;99.90;;;;;;5043041;28;19970;-69
2022/09/23 05:34:39;;;;;;;;;;;7.70;99.90;;;;;;5047609;28;19924;-69
2022/09/23 05:37:05;;;;;;;;;;;7.70;99.90;;;;;;5043273;28;19986;-69
2022/09/23 05:39:31;;;;;;;;;;;7.70;99.90;;;;;;5051857;28;19971;-69
2022/09/23 05:41:58;;;;;;;;;;;7.70;99.90;;;;;;5052504;28;19924;-69
2022/09/23 05:44:24;;;;;;;;;;;7.70;99.90;;;;;;5044083;28;19981;-69
2022/09/23 05:46:49;;;;;;;;;;;7.70;99.90;;;;;;5041047;28;20004;-69
2022/09/23 05:49:15;;;;;;;;;;;7.80;99.90;;;;;;5050750;28;20289;-69
2022/09/23 05:51:40;;;;;;;;;;;7.80;99.90;;;;;;5035815;28;19935;-69
2022/09/23 05:54:07;;;;;;;;;;;7.90;99.90;;;;;;5046089;28;19929;-69
2022/09/23 05:56:33;;;;;;;;;;;7.90;99.90;;;;;;5037487;28;19928;-69
2022/09/23 05:58:59;;;;;;;;;;;8.00;99.90;;;;;;5037727;28;19925;-69
2022/09/23 06:01:25;;;;;;;;;;;8.10;99.90;;;;;;5083064;28;20401;-69
2022/09/23 06:03:51;;;;;;;;;;;8.20;99.90;;;;;;5086805;28;20324;-69
2022/09/23 06:06:17;;;;;;;;;;;8.30;99.90;;;;;;5051340;28;19924;-69
2022/09/23 06:08:43;;;;;;;;;;;8.40;99.90;;;;;;5048376;28;19925;-69
2022/09/23 06:11:10;;;;;;;;;;;8.50;99.90;;;;;;5051489;28;19978;-69
2022/09/23 06:13:37;;;;;;;;;;;8.70;99.90;;;;;;5050196;28;19936;-69
2022/09/23 06:16:06;;;;;;;;;;;8.80;99.90;;;;;;5052142;28;19924;-69
2022/09/23 06:18:32;;;;;;;;;;;8.90;99.90;;;;;;5050499;28;19925;-69
2022/09/23 06:21:01;;;;;;;;;;;9.10;99.90;;;;;;5051419;28;19927;-69
2022/09/23 06:23:27;;;;;;;;;;;9.40;99.90;;;;;;5034785;28;19920;-69
2022/09/23 06:25:53;;;;;;;;;;;9.80;99.90;;;;;;5051047;28;20043;-69
2022/09/23 06:28:18;;;;;;;;;;;10.20;99.90;;;;;;5081824;28;19928;-69
2022/09/23 06:30:44;;;;;;;;;;;10.70;99.90;;;;;;5048288;28;19964;-69
2022/09/23 06:33:09;;;;;;;;;;;11.20;99.90;;;;;;5056574;28;19920;-69
2022/09/23 06:35:35;;;;;;;;;;;11.80;99.90;;;;;;5047695;28;19966;-69
2022/09/23 06:38:04;;;;;;;;;;;12.70;99.90;;;;;;5054607;28;20041;-70
2022/09/23 06:40:30;;;;;;;;;;;13.40;99.90;;;;;;5054518;28;19974;-69
2022/09/23 06:42:56;;;;;;;;;;;13.80;99.90;;;;;;5074137;28;19925;-69
2022/09/23 06:45:22;;;;;;;;;;;13.90;99.90;;;;;;5056508;28;20401;-69
2022/09/23 06:47:52;;;;;;;;;;;13.80;99.90;;;;;;5073421;28;19950;-69
2022/09/23 06:50:18;;;;;;;;;;;13.70;99.90;;;;;;5056569;28;20023;-69
2022/09/23 06:52:49;;;;;;;;;;;13.50;99.90;;;;;;5056179;28;20438;-69
2022/09/23 06:55:14;;;;;;;;;;;13.60;99.90;;;;;;5055202;28;19931;-70
2022/09/23 06:57:40;;;;;;;;;;;13.60;99.90;;;;;;5082701;28;20293;-69
2022/09/23 07:00:06;;;;;;;;;;;13.60;99.90;;;;;;5055439;28;19924;-69
2022/09/23 07:02:31;;;;;;;;;;;13.50;99.90;;;;;;5052481;28;19935;-70
2022/09/23 07:04:57;;;;;;;;;;;13.40;99.90;;;;;;5083878;28;20358;-69
2022/09/23 07:07:22;;;;;;;;;;;13.40;99.90;;;;;;5041830;28;19929;-69
2022/09/23 07:09:48;;;;;;;;;;;13.30;99.90;;;;;;5084761;22;19925;-69
2022/09/23 07:12:14;;;;;;;;;;;13.30;99.90;;;;;;5052227;28;20023;-69
2022/09/23 07:14:39;;;;;;;;;;;13.10;99.90;;;;;;5069776;28;20464;-69
2022/09/23 07:17:05;;;;;;;;;;;13.00;99.90;;;;;;5054705;28;19924;-69
2022/09/23 07:19:30;;;;;;;;;;;12.80;99.90;;;;;;5052518;28;19924;-69
2022/09/23 07:21:56;;;;;;;;;;;12.70;99.90;;;;;;5071544;28;19925;-69
2022/09/23 07:24:21;;;;;;;;;;;12.60;99.90;;;;;;5070863;28;19929;-69
2022/09/23 07:26:47;;;;;;;;;;;12.50;99.90;;;;;;5052498;28;19967;-69
2022/09/23 07:29:13;;;;;;;;;;;12.40;99.90;;;;;;5055653;28;19974;-70
2022/09/23 07:31:38;;;;;;;;;;;12.50;99.90;;;;;;5070346;28;19975;-70
2022/09/23 07:34:05;;;;;;;;;;;12.50;99.90;;;;;;5069109;28;20473;-70
2022/09/23 07:36:31;;;;;;;;;;;12.50;99.90;;;;;;5053220;28;20358;-70
2022/09/23 07:39:01;;;;;;;;;;;12.50;99.90;;;;;;5062518;28;19955;-69
2022/09/23 07:41:28;;;;;;;;;;;12.50;99.90;;;;;;5069533;28;19981;-69
2022/09/23 07:43:57;;;;;;;;;;;12.60;99.90;;;;;;5071010;28;19921;-69
2022/09/23 07:46:23;;;;;;;;;;;12.50;99.90;;;;;;5066476;28;19924;-69
2022/09/23 07:48:49;;;;;;;;;;;12.50;99.90;;;;;;5070586;28;20309;-68
2022/09/23 07:51:16;;;;;;;;;;;12.50;99.90;;;;;;5067991;28;19924;-68
2022/09/23 07:53:46;;;;;;;;;;;12.50;99.90;;;;;;5051868;28;19964;-68
2022/09/23 07:56:11;;;;;;;;;;;12.50;99.90;;;;;;5052424;28;19936;-68
2022/09/23 07:58:37;;;;;;;;;;;12.60;99.90;;;;;;5071626;28;19925;-68
2022/09/23 08:01:03;;;;;;;;;;;12.60;99.90;;;;;;5070933;28;19924;-68
2022/09/23 08:03:29;;;;;;;;;;;12.70;99.90;;;;;;5069618;28;19981;-68
2022/09/23 08:06:02;;;;;;;;;;;12.70;99.90;;;;;;5068118;28;20297;-68
2022/09/23 08:08:27;;;;;;;;;;;12.70;99.90;;;;;;5062016;28;19974;-68
2022/09/23 08:10:58;;;;;;;;;;;12.80;99.90;;;;;;5054109;28;19924;-68
2022/09/23 08:13:24;;;;;;;;;;;12.90;99.90;;;;;;5071232;28;19924;-68
2022/09/23 08:15:49;;;;;;;;;;;12.90;99.90;;;;;;5090824;28;20372;-68
2022/09/23 08:18:15;;;;;;;;;;;13.00;99.90;;;;;;5075394;28;19920;-68
2022/09/23 08:20:43;;;;;;;;;;;13.00;99.90;;;;;;5074086;28;20008;-68
2022/09/23 08:23:13;;;;;;;;;;;13.00;99.90;;;;;;5078331;28;19945;-68
2022/09/23 08:25:44;;;;;;;;;;;13.10;99.90;;;;;;5078539;28;20273;-69
2022/09/23 08:28:11;;;;;;;;;;;13.20;99.90;;;;;;5073952;28;19928;-68
2022/09/23 08:30:37;;;;;;;;;;;13.30;99.90;;;;;;5074459;28;19928;-69
2022/09/23 08:33:03;;;;;;;;;;;13.30;99.90;;;;;;5073005;28;19924;-69
2022/09/23 08:35:28;;;;;;;;;;;13.40;99.90;;;;;;5078436;28;19931;-68
2022/09/23 08:37:54;;;;;;;;;;;13.40;99.90;;;;;;5085309;28;19927;-68
2022/09/23 08:40:19;;;;;;;;;;;13.60;99.90;;;;;;5072082;28;19920;-68
2022/09/23 08:42:45;;;;;;;;;;;13.70;99.90;;;;;;5055643;28;19920;-68
2022/09/23 08:45:14;;;;;;;;;;;13.80;99.90;;;;;;5067068;28;19966;-68
2022/09/23 08:47:50;;;;;;;;;;;13.90;99.90;;;;;;5090387;28;19935;-68
2022/09/23 08:50:16;;;;;;;;;;;14.00;99.90;;;;;;5076908;28;19920;-68
2022/09/23 08:52:42;;;;;;;;;;;14.10;99.90;;;;;;5074282;28;19920;-68
2022/09/23 08:55:10;;;;;;;;;;;14.30;99.90;;;;;;5067997;28;20296;-68
2022/09/23 08:57:36;;;;;;;;;;;14.30;99.90;;;;;;5057200;28;19931;-68
2022/09/23 09:00:02;;;;;;;;;;;14.40;99.90;;;;;;5068655;28;19921;-68
2022/09/23 09:02:28;;;;;;;;;;;14.50;99.90;;;;;;5069733;28;19920;-68
2022/09/23 09:04:58;;;;;;;;;;;14.60;99.90;;;;;;5065028;28;19969;-68
2022/09/23 09:07:28;;;;;;;;;;;14.70;99.90;;;;;;5072046;28;19985;-69
2022/09/23 09:09:56;;;;;;;;;;;14.70;99.90;;;;;;5068459;28;19924;-68
2022/09/23 09:12:37;;;;;;;;;;;14.80;99.90;;;;;;5071405;28;19930;-68
2022/09/23 09:15:20;;;;;;;;;;;14.90;99.90;;;;;;5092132;28;20388;-68
2022/09/23 09:18:08;;;;;;;;;;;14.90;99.90;;;;;;5037622;28;20487;-68
2022/09/23 09:20:42;;;;;;;;;;;15.00;99.90;;;;;;5061953;28;20366;-69
2022/09/23 09:23:20;;;;;;;;;;;15.10;99.90;;;;;;5071435;28;19924;-69
2022/09/23 09:25:50;;;;;;;;;;;15.20;99.90;;;;;;5088795;28;19966;-69
2022/09/23 09:28:29;;;;;;;;;;;15.20;99.90;;;;;;5068360;28;20010;-69
2022/09/23 09:30:56;;;;;;;;;;;15.30;99.90;;;;;;5082318;28;19924;-70
2022/09/23 09:33:35;;;;;;;;;;;15.30;99.90;;;;;;5069910;28;20015;-69
2022/09/23 09:36:19;;;;;;;;;;;15.30;99.90;;;;;;5071468;28;19924;-69
2022/09/23 09:38:45;;;;;;;;;;;15.30;99.90;;;;;;5073408;28;19943;-70
2022/09/23 09:41:12;;;;;;;;;;;15.30;99.90;;;;;;5091710;28;20389;-69
2022/09/23 09:43:39;;;;;;;;;;;15.30;99.90;;;;;;5071417;28;19928;-69
2022/09/23 09:46:23;;;;;;;;;;;15.30;99.90;;;;;;5091847;28;19970;-69
2022/09/23 09:49:00;;;;;;;;;;;15.30;99.90;;;;;;5090648;28;19939;-69
2022/09/23 09:51:27;;;;;;;;;;;15.30;99.90;;;;;;5071911;28;20373;-69
2022/09/23 09:53:53;;;;;;;;;;;15.30;99.90;;;;;;5072313;28;19924;-69
2022/09/23 09:56:30;;;;;;;;;;;15.40;99.90;;;;;;5073492;28;19931;-69
2022/09/23 09:59:09;;;;;;;;;;;15.50;99.90;;;;;;5073085;28;19920;-69
2022/09/23 10:01:35;;;;;;;;;;;15.50;99.90;;;;;;5090563;28;19920;-69
2022/09/23 10:04:02;;;;;;;;;;;15.50;99.90;;;;;;5092015;28;20458;-70
2022/09/23 10:06:29;;;;;;;;;;;15.60;99.90;;;;;;5073687;28;19939;-69
2022/09/23 10:09:01;;;;;;;;;;;15.60;99.90;;;;;;5075768;28;19924;-69
2022/09/23 10:11:27;;;;;;;;;;;15.60;99.90;;;;;;5077131;28;19924;-69
2022/09/23 10:14:01;;;;;;;;;;;15.70;99.90;;;;;;5077336;28;19942;-68
2022/09/23 10:16:29;;;;;;;;;;;15.80;99.90;;;;;;5076983;28;19967;-69
2022/09/23 10:18:55;;;;;;;;;;;15.80;99.90;;;;;;5095559;28;19931;-69
2022/09/23 10:21:22;;;;;;;;;;;15.80;99.90;;;;;;5076909;28;19966;-69
2022/09/23 10:23:57;;;;;;;;;;;15.90;99.90;;;;;;5073739;28;19919;-68
2022/09/23 10:26:33;;;;;;;;;;;15.90;99.90;;;;;;5076869;28;19982;-69
2022/09/23 10:29:17;;;;;;;;;;;15.90;99.90;;;;;;5072899;28;20282;-69
2022/09/23 10:31:44;;;;;;;;;;;15.90;99.90;;;;;;5093482;28;20366;-69
2022/09/23 10:34:28;;;;;;;;;;;15.90;99.90;;;;;;5080286;28;19927;-69
2022/09/23 10:37:00;;;;;;;;;;;16.00;99.90;;;;;;5066986;28;19931;-69
2022/09/23 10:48:09;;;;;;;;;;;16.30;99.90;;;;;;5070712;28;19943;-69
2022/09/23 10:50:38;;;;;;;;;;;16.40;99.90;;;;;;5059686;28;19993;-69
2022/09/23 10:53:11;;;;;;;;;;;16.40;99.90;;;;;;5077577;28;20011;-69
2022/09/23 10:55:49;;;;;;;;;;;16.50;99.90;;;;;;5076439;28;19943;-69
2022/09/23 10:58:31;;;;;;;;;;;16.50;99.90;;;;;;5073347;28;19973;-69
2022/09/23 11:01:22;;;;;;;;;;;16.50;99.90;;;;;;5074659;28;19928;-69
2022/09/23 11:03:57;;;;;;;;;;;16.50;99.90;;;;;;5086689;28;19931;-69
2022/09/23 11:06:48;;;;;;;;;;;16.50;99.90;;;;;;5071587;28;19924;-69
2022/09/23 11:09:32;;;;;;;;;;;16.60;99.90;;;;;;5092346;28;19925;-69
2022/09/23 11:12:25;;;;;;;;;;;16.70;99.90;;;;;;5075772;28;19930;-69
2022/09/23 11:15:10;;;;;;;;;;;16.80;99.90;;;;;;5070850;28;20286;-69
2022/09/23 11:17:45;;;;;;;;;;;16.80;99.90;;;;;;5071013;28;20380;-69
2022/09/23 11:20:28;;;;;;;;;;;16.80;99.90;;;;;;5074331;28;19930;-69
2022/09/23 11:23:09;;;;;;;;;;;16.80;99.90;;;;;;5075926;28;19931;-69
2022/09/23 11:25:55;;;;;;;;;;;16.70;99.90;;;;;;5075693;28;19953;-69
2022/09/23 11:28:36;;;;;;;;;;;16.80;99.90;;;;;;5037293;28;20340;-69
2022/09/23 11:31:27;;;;;;;;;;;16.80;99.90;;;;;;5075558;28;19920;-69
2022/09/23 11:34:04;;;;;;;;;;;16.90;99.90;;;;;;5058765;28;20011;-69
2022/09/23 11:36:32;;;;;;;;;;;16.90;99.90;;;;;;5073974;28;20011;-69
2022/09/23 11:39:00;;;;;;;;;;;16.90;99.90;;;;;;5093920;28;20040;-69
2022/09/23 11:41:30;;;;;;;;;;;16.90;99.90;;;;;;5075178;28;19920;-69
2022/09/23 11:44:00;;;;;;;;;;;16.90;99.90;;;;;;5075556;28;19924;-69
2022/09/23 11:46:31;;;;;;;;;;;16.90;99.90;;;;;;5075575;28;20281;-69
2022/09/23 11:49:16;;;;;;;;;;;16.90;99.90;;;;;;5074490;28;19924;-69
2022/09/23 11:52:00;;;;;;;;;;;16.80;99.90;;;;;;5072893;28;20018;-69
2022/09/23 11:54:34;;;;;;;;;;;16.80;99.90;;;;;;5066510;28;20336;-69
2022/09/23 11:57:02;;;;;;;;;;;16.80;99.90;;;;;;5074329;28;19951;-69
2022/09/23 11:59:33;;;;;;;;;;;16.80;99.90;;;;;;5074998;28;19924;-69
2022/09/23 12:02:04;;;;;;;;;;;16.70;99.90;;;;;;5071098;28;19920;-69
2022/09/23 12:04:32;;;;;;;;;;;16.70;99.90;;;;;;5075326;28;20361;-69
2022/09/23 12:07:07;;;;;;;;;;;16.80;99.90;;;;;;5073625;28;19963;-69
2022/09/23 12:10:02;;;;;;;;;;;16.80;99.90;;;;;;5059788;28;19960;-69
2022/09/23 12:12:40;;;;;;;;;;;16.90;99.90;;;;;;5041390;28;19935;-69
2022/09/23 12:15:12;;;;;;;;;;;16.90;99.90;;;;;;5090835;28;19927;-69
2022/09/23 12:17:44;;;;;;;;;;;16.90;99.90;;;;;;5067290;28;20482;-68
2022/09/23 12:20:20;;;;;;;;;;;16.80;99.90;;;;;;5068525;28;19924;-69
2022/09/23 12:22:58;;;;;;;;;;;16.90;99.90;;;;;;5073863;28;19969;-69
2022/09/23 12:25:45;;;;;;;;;;;16.80;99.90;;;;;;5085900;28;19958;-69
2022/09/23 12:28:13;;;;;;;;;;;16.90;99.90;;;;;;5056042;28;19928;-69
2022/09/23 12:30:39;;;;;;;;;;;16.90;99.90;;;;;;5037337;28;19970;-69
2022/09/23 12:33:06;;;;;;;;;;;17.00;99.90;;;;;;5073657;28;19963;-69
2022/09/23 12:35:36;;;;;;;;;;;17.00;99.90;;;;;;5055128;28;20067;-69
2022/09/23 12:38:10;;;;;;;;;;;17.00;99.90;;;;;;5067241;28;20046;-69
2022/09/23 12:40:39;;;;;;;;;;;17.10;99.90;;;;;;5070433;28;20298;-69
2022/09/23 12:43:05;;;;;;;;;;;17.10;99.90;;;;;;5070327;28;19920;-69
2022/09/23 12:45:31;;;;;;;;;;;17.10;99.90;;;;;;5066910;28;20262;-69
2022/09/23 12:48:04;;;;;;;;;;;17.20;99.90;;;;;;5068344;28;20442;-70
2022/09/23 12:50:45;;;;;;;;;;;17.20;99.90;;;;;;5055667;28;19920;-70
2022/09/23 12:53:49;;;;;;;;;;;17.30;99.90;;;;;;5054743;28;19935;-70
2022/09/23 12:56:15;;;;;;;;;;;17.40;99.90;;;;;;5070376;28;20428;-70
2022/09/23 12:58:40;;;;;;;;;;;17.50;99.90;;;;;;5073797;28;19971;-70
2022/09/23 13:01:07;;;;;;;;;;;17.60;99.90;;;;;;5074054;28;19920;-70
2022/09/23 13:09:01;;;;;;;;;;;17.80;99.90;;;;;;5065261;28;19924;-70
2022/09/23 13:11:30;;;;;;;;;;;17.80;99.90;;;;;;5065609;28;20388;-69
2022/09/23 13:13:59;;;;;;;;;;;17.80;99.90;;;;;;5073408;28;20035;-69
2022/09/23 13:16:28;;;;;;;;;;;17.80;99.90;;;;;;5056074;28;19928;-69
2022/09/23 13:19:26;;;;;;;;;;;17.90;99.90;;;;;;5069620;28;20361;-69
2022/09/23 13:21:57;;;;;;;;;;;17.90;99.90;;;;;;5069400;28;19931;-69
2022/09/23 13:24:32;;;;;;;;;;;17.90;99.90;;;;;;5069707;28;20278;-70
2022/09/23 13:27:00;;;;;;;;;;;17.90;99.90;;;;;;5071717;28;20377;-69
2022/09/23 13:29:28;;;;;;;;;;;17.90;99.90;;;;;;5070471;28;19950;-70
2022/09/23 13:31:56;;;;;;;;;;;17.80;99.90;;;;;;5055142;28;19924;-69
2022/09/23 13:34:23;;;;;;;;;;;17.70;99.90;;;;;;5073569;28;19929;-69
2022/09/23 13:36:48;;;;;;;;;;;17.70;99.90;;;;;;5071353;28;19927;-69
2022/09/23 13:39:25;;;;;;;;;;;17.60;99.90;;;;;;5071722;28;20361;-69
2022/09/23 13:41:51;;;;;;;;;;;17.50;99.90;;;;;;5071613;28;19926;-69
2022/09/23 13:44:18;;;;;;;;;;;17.40;99.90;;;;;;5072443;28;19928;-69
2022/09/23 13:46:51;;;;;;;;;;;17.30;99.90;;;;;;5057622;28;19964;-69
2022/09/23 13:49:24;;;;;;;;;;;17.20;99.90;;;;;;5073216;28;19924;-69
2022/09/23 13:51:52;;;;;;;;;;;17.20;99.90;;;;;;5072308;28;20469;-69
2022/09/23 13:54:28;;;;;;;;;;;17.00;99.90;;;;;;5070149;28;20372;-69
2022/09/23 13:56:57;;;;;;;;;;;17.00;99.90;;;;;;5075195;28;19920;-69
2022/09/23 13:59:29;;;;;;;;;;;16.90;99.90;;;;;;5073144;28;19924;-69
2022/09/23 14:02:11;;;;;;;;;;;16.80;99.90;;;;;;5067320;28;20116;-69
2022/09/23 14:04:37;;;;;;;;;;;16.80;99.90;;;;;;5069984;28;19931;-69
2022/09/23 14:07:03;;;;;;;;;;;16.70;99.90;;;;;;5068695;28;20397;-69
2022/09/23 14:09:29;;;;;;;;;;;16.60;99.90;;;;;;5072796;23;19932;-67
2022/09/23 14:11:56;;;;;;;;;;;16.60;99.90;;;;;;5071304;28;19932;-67
2022/09/23 14:14:22;;;;;;;;;;;16.50;99.90;;;;;;5070577;28;19967;-67
2022/09/23 14:16:49;;;;;;;;;;;16.50;99.90;;;;;;5075348;28;20419;-67
2022/09/23 14:19:21;;;;;;;;;;;16.50;99.90;;;;;;5073360;28;20040;-67
2022/09/23 14:21:48;;;;;;;;;;;16.40;99.90;;;;;;5075186;28;19966;-67
2022/09/23 14:24:16;;;;;;;;;;;16.40;99.90;;;;;;5073256;28;19920;-67
2022/09/23 14:26:44;;;;;;;;;;;16.40;99.90;;;;;;5048929;28;19921;-68
2022/09/23 14:29:17;;;;;;;;;;;16.40;99.90;;;;;;5065106;28;19978;-68
2022/09/23 14:31:55;;;;;;;;;;;16.40;99.90;;;;;;5069016;28;20396;-68
2022/09/23 14:34:39;;;;;;;;;;;16.40;99.90;;;;;;5077033;28;19920;-68
2022/09/23 14:39:55;;;;;;;;;;;16.40;99.90;;;;;;5092272;28;19923;-68
2022/09/23 14:42:21;;;;;;;;;;;16.30;99.90;;;;;;5082520;28;19919;-67
2022/09/23 14:44:48;;;;;;;;;;;16.30;99.90;;;;;;5064145;28;19928;-67
2022/09/23 14:47:14;;;;;;;;;;;16.20;99.90;;;;;;5079260;28;19974;-67
2022/09/23 14:50:35;;;;;;;;;;;16.20;99.90;;;;;;5072238;28;19959;-67
2022/09/23 14:52:30;;;;;;;;;;;16.30;99.90;;;;;;5064290;28;19928;-66
2022/09/23 14:54:56;;;;;;;;;;;16.30;99.90;;;;;;5074083;28;19920;-67
2022/09/23 14:57:22;;;;;;;;;;;16.30;99.90;;;;;;5060990;28;19942;-67